createdAt,value
2022-08-25T00:00:07.168Z,95320.55
2022-08-25T00:01:07.158Z,95315.57
2022-08-25T00:02:07.168Z,95311.14
2022-08-25T00:03:07.155Z,95312.83
2022-08-25T00:04:07.172Z,95311.31
2022-08-25T00:05:07.188Z,95309.46
2022-08-25T00:06:07.124Z,95301.09
2022-08-25T00:07:07.123Z,95308.36
2022-08-25T00:08:07.212Z,95303.05
2022-08-25T00:09:07.091Z,95308.74
2022-08-25T00:10:07.103Z,95305.65
2022-08-25T00:11:07.096Z,95305.66
2022-08-25T00:12:07.062Z,95306.20
2022-08-25T00:13:07.076Z,95306.65
2022-08-25T00:14:07.043Z,95309.67
2022-08-25T00:15:07.044Z,95308.81
2022-08-25T00:16:07.089Z,95308.61
2022-08-25T00:17:07.024Z,95307.16
2022-08-25T00:18:11.427Z,95305.75
2022-08-25T00:19:07.005Z,95308.95
2022-08-25T00:20:06.995Z,95305.27
2022-08-25T00:21:06.985Z,95306.20
2022-08-25T00:22:06.995Z,95303.56
2022-08-25T00:23:06.989Z,95305.38
2022-08-25T00:24:06.958Z,95308.91
2022-08-25T00:25:06.957Z,95304.38
2022-08-25T00:26:06.937Z,95306.86
2022-08-25T00:27:06.938Z,95305.55
2022-08-25T00:28:08.624Z,95305.75
2022-08-25T00:29:06.920Z,95305.75
2022-08-25T00:30:06.921Z,95304.62
2022-08-25T00:31:07.013Z,95307.41
2022-08-25T00:32:06.905Z,95303.70
2022-08-25T00:33:06.881Z,95308.06
2022-08-25T00:34:07.025Z,95308.12
2022-08-25T00:35:06.872Z,95307.58
2022-08-25T00:36:06.851Z,95308.33
2022-08-25T00:37:06.852Z,95306.51
2022-08-25T00:38:06.963Z,95308.81
2022-08-25T00:39:06.848Z,95307.75
2022-08-25T00:40:06.863Z,95307.64
2022-08-25T00:41:06.813Z,95304.17
2022-08-25T00:42:07.469Z,95301.97
2022-08-25T00:43:06.794Z,95300.67
2022-08-25T00:44:06.799Z,95299.33
2022-08-25T00:45:06.790Z,95297.92
2022-08-25T00:46:06.897Z,95297.20
2022-08-25T00:47:06.766Z,95298.44
2022-08-25T00:48:07.062Z,95298.53
2022-08-25T00:49:06.746Z,95301.69
2022-08-25T00:50:06.741Z,95295.78
2022-08-25T00:51:06.728Z,95300.59
2022-08-25T00:52:06.741Z,95298.59
2022-08-25T00:53:06.708Z,95295.84
2022-08-25T00:54:06.699Z,95296.50
2022-08-25T00:55:07.969Z,95296.30
2022-08-25T00:56:06.693Z,95297.88
2022-08-25T00:57:06.693Z,95302.71
2022-08-25T00:58:06.704Z,95300.89
2022-08-25T00:59:06.660Z,95299.61
2022-08-25T01:00:06.650Z,95302.73
2022-08-25T01:01:06.694Z,95304.69
2022-08-25T01:02:06.654Z,95303.35
2022-08-25T01:03:06.686Z,95308.43
2022-08-25T01:04:06.646Z,95304.61
2022-08-25T01:05:06.626Z,95313.50
2022-08-25T01:06:06.593Z,95309.17
2022-08-25T01:07:06.607Z,95316.00
2022-08-25T01:08:06.996Z,95312.28
2022-08-25T01:09:06.588Z,95311.87
2022-08-25T01:10:06.585Z,95310.90
2022-08-25T01:11:06.568Z,95313.23
2022-08-25T01:12:06.559Z,95314.05
2022-08-25T01:13:06.558Z,95312.41
2022-08-25T01:14:06.526Z,95317.16
2022-08-25T01:15:06.526Z,95312.42
2022-08-25T01:16:06.559Z,95312.28
2022-08-25T01:17:06.529Z,95314.30
2022-08-25T01:18:06.672Z,95313.68
2022-08-25T01:19:06.503Z,95319.00
2022-08-25T01:20:06.492Z,95309.83
2022-08-25T01:21:06.489Z,95307.91
2022-08-25T01:22:06.477Z,95310.68
2022-08-25T01:23:06.472Z,95309.89
2022-08-25T01:24:06.460Z,95312.66
2022-08-25T01:25:06.453Z,95308.00
2022-08-25T01:26:06.429Z,95307.89
2022-08-25T01:27:06.435Z,95311.66
2022-08-25T01:28:06.629Z,95316.70
2022-08-25T01:29:06.404Z,95313.34
2022-08-25T01:30:06.415Z,95312.22
2022-08-25T01:31:23.908Z,95313.83
2022-08-25T01:32:06.386Z,95309.38
2022-08-25T01:33:06.384Z,95310.12
2022-08-25T01:34:06.390Z,95309.72
2022-08-25T01:35:06.367Z,95310.85
2022-08-25T01:36:06.357Z,95312.88
2022-08-25T01:37:06.351Z,95312.50
2022-08-25T01:38:06.421Z,95313.31
2022-08-25T01:39:06.316Z,95312.94
2022-08-25T01:40:06.411Z,95312.80
2022-08-25T01:41:06.307Z,95311.87
2022-08-25T01:42:06.315Z,95313.16
2022-08-25T01:43:06.287Z,95309.28
2022-08-25T01:44:06.275Z,95305.03
2022-08-25T01:45:06.281Z,95307.09
2022-08-25T01:46:06.326Z,95307.97
2022-08-25T01:47:06.248Z,95302.91
2022-08-25T01:48:06.379Z,95306.39
2022-08-25T01:49:06.883Z,95309.12
2022-08-25T01:50:06.220Z,95308.45
2022-08-25T01:51:06.233Z,95299.59
2022-08-25T01:52:06.234Z,95305.08
2022-08-25T01:53:06.200Z,95305.11
2022-08-25T01:54:06.195Z,95302.52
2022-08-25T01:55:06.194Z,95300.90
2022-08-25T01:56:06.162Z,95300.73
2022-08-25T01:57:06.162Z,95295.33
2022-08-25T01:58:06.275Z,95299.28
2022-08-25T01:59:06.161Z,95301.50
2022-08-25T02:00:06.137Z,95299.41
2022-08-25T02:01:06.206Z,95302.39
2022-08-25T02:02:06.135Z,95299.58
2022-08-25T02:03:06.160Z,95299.64
2022-08-25T02:04:06.204Z,95298.88
2022-08-25T02:05:06.099Z,95305.97
2022-08-25T02:06:06.076Z,95297.71
2022-08-25T02:07:06.078Z,95301.14
2022-08-25T02:08:06.248Z,95294.89
2022-08-25T02:09:06.057Z,95294.25
2022-08-25T02:10:06.055Z,95293.56
2022-08-25T02:11:06.038Z,95293.05
2022-08-25T02:12:06.031Z,95289.55
2022-08-25T02:13:06.031Z,95289.88
2022-08-25T02:14:06.021Z,95291.05
2022-08-25T02:15:05.999Z,95293.34
2022-08-25T02:16:06.104Z,95291.83
2022-08-25T02:17:06.062Z,95288.53
2022-08-25T02:18:06.148Z,95289.14
2022-08-25T02:19:05.971Z,95295.75
2022-08-25T02:20:05.966Z,95288.89
2022-08-25T02:21:05.975Z,95290.34
2022-08-25T02:22:05.960Z,95295.69
2022-08-25T02:23:05.953Z,95300.34
2022-08-25T02:24:05.922Z,95295.23
2022-08-25T02:25:05.922Z,95297.45
2022-08-25T02:26:05.918Z,95292.31
2022-08-25T02:27:05.914Z,95290.49
2022-08-25T02:28:06.021Z,95292.88
2022-08-25T02:29:05.885Z,95289.68
2022-08-25T02:30:05.876Z,95287.55
2022-08-25T02:31:05.894Z,95293.28
2022-08-25T02:32:05.859Z,95291.80
2022-08-25T02:33:05.847Z,95288.54
2022-08-25T02:34:05.863Z,95291.01
2022-08-25T02:35:05.828Z,95288.77
2022-08-25T02:36:05.818Z,95291.12
2022-08-25T02:37:05.822Z,95293.70
2022-08-25T02:38:05.913Z,95290.91
2022-08-25T02:39:05.811Z,95294.75
2022-08-25T02:40:05.870Z,95301.95
2022-08-25T02:41:05.792Z,95298.72
2022-08-25T02:42:05.773Z,95289.66
2022-08-25T02:43:05.775Z,95294.07
2022-08-25T02:44:05.755Z,95296.54
2022-08-25T02:45:05.741Z,95291.47
2022-08-25T02:46:06.260Z,95295.23
2022-08-25T02:47:05.722Z,95295.95
2022-08-25T02:48:05.868Z,95298.53
2022-08-25T02:49:05.717Z,95291.67
2022-08-25T02:50:05.694Z,95295.56
2022-08-25T02:51:05.684Z,95296.69
2022-08-25T02:52:05.694Z,95295.58
2022-08-25T02:53:05.678Z,95299.17
2022-08-25T02:54:05.667Z,95301.00
2022-08-25T02:55:05.660Z,95298.33
2022-08-25T02:56:05.635Z,95301.23
2022-08-25T02:57:05.638Z,95298.02
2022-08-25T02:58:05.741Z,95304.39
2022-08-25T02:59:05.615Z,95301.58
2022-08-25T03:00:05.610Z,95301.00
2022-08-25T03:01:05.660Z,95301.17
2022-08-25T03:02:05.587Z,95304.05
2022-08-25T03:03:05.591Z,95303.45
2022-08-25T03:04:05.592Z,95297.49
2022-08-25T03:05:05.619Z,95302.39
2022-08-25T03:06:05.548Z,95304.92
2022-08-25T03:07:05.553Z,95307.83
2022-08-25T03:08:05.740Z,95304.71
2022-08-25T03:09:05.528Z,95301.23
2022-08-25T03:10:05.531Z,95296.79
2022-08-25T03:11:05.501Z,95299.53
2022-08-25T03:12:05.505Z,95299.83
2022-08-25T03:13:05.495Z,95295.17
2022-08-25T03:14:05.486Z,95292.53
2022-08-25T03:15:05.483Z,95291.27
2022-08-25T03:16:05.524Z,95285.17
2022-08-25T03:17:05.500Z,95286.09
2022-08-25T03:18:05.626Z,95283.08
2022-08-25T03:19:05.604Z,95290.99
2022-08-25T03:20:05.417Z,95284.62
2022-08-25T03:21:05.428Z,95280.87
2022-08-25T03:22:05.429Z,95280.19
2022-08-25T03:23:05.395Z,95278.77
2022-08-25T03:24:05.388Z,95280.44
2022-08-25T03:25:05.378Z,95280.02
2022-08-25T03:26:05.368Z,95278.55
2022-08-25T03:27:05.371Z,95286.95
2022-08-25T03:28:05.663Z,95283.77
2022-08-25T03:29:05.338Z,95284.66
2022-08-25T03:30:05.342Z,95281.81
2022-08-25T03:31:05.333Z,95280.03
2022-08-25T03:32:05.419Z,95285.88
2022-08-25T03:33:05.314Z,95281.84
2022-08-25T03:34:05.324Z,95288.27
2022-08-25T03:35:05.290Z,95287.30
2022-08-25T03:36:05.284Z,95283.08
2022-08-25T03:37:05.284Z,95287.15
2022-08-25T03:38:05.443Z,95291.88
2022-08-25T03:39:05.253Z,95296.39
2022-08-25T03:40:05.286Z,95299.52
2022-08-25T03:41:05.232Z,95296.03
2022-08-25T03:42:05.237Z,95295.23
2022-08-25T03:43:05.214Z,95301.73
2022-08-25T03:44:05.217Z,95300.06
2022-08-25T03:45:05.209Z,95298.31
2022-08-25T03:46:05.286Z,95298.77
2022-08-25T03:47:05.189Z,95302.80
2022-08-25T03:48:05.234Z,95299.91
2022-08-25T03:49:05.156Z,95304.92
2022-08-25T03:50:05.159Z,95297.34
2022-08-25T03:51:05.144Z,95300.80
2022-08-25T03:52:05.146Z,95297.16
2022-08-25T03:53:05.127Z,95292.41
2022-08-25T03:54:05.126Z,95301.83
2022-08-25T03:55:05.124Z,95304.48
2022-08-25T03:56:05.101Z,95299.27
2022-08-25T03:57:05.094Z,95299.82
2022-08-25T03:58:05.245Z,95300.30
2022-08-25T03:59:05.070Z,95300.70
2022-08-25T04:00:05.071Z,95306.31
2022-08-25T04:01:05.135Z,95300.73
2022-08-25T04:02:05.078Z,95308.02
2022-08-25T04:03:05.040Z,95306.81
2022-08-25T04:04:05.054Z,95300.05
2022-08-25T04:05:05.023Z,95301.70
2022-08-25T04:06:05.016Z,95307.83
2022-08-25T04:07:05.015Z,95302.24
2022-08-25T04:08:05.203Z,95302.28
2022-08-25T04:09:04.983Z,95305.47
2022-08-25T04:10:04.981Z,95304.48
2022-08-25T04:11:04.977Z,95300.68
2022-08-25T04:12:04.946Z,95300.98
2022-08-25T04:13:04.945Z,95305.16
2022-08-25T04:14:04.938Z,95304.95
2022-08-25T04:15:04.925Z,95304.33
2022-08-25T04:16:04.966Z,95301.58
2022-08-25T04:17:04.906Z,95303.97
2022-08-25T04:18:05.156Z,95299.44
2022-08-25T04:19:04.901Z,95298.41
2022-08-25T04:20:04.891Z,95300.09
2022-08-25T04:21:04.867Z,95301.97
2022-08-25T04:22:04.880Z,95296.75
2022-08-25T04:23:04.849Z,95300.64
2022-08-25T04:24:04.856Z,95298.67
2022-08-25T04:25:04.842Z,95299.14
2022-08-25T04:26:04.835Z,95297.56
2022-08-25T04:27:04.824Z,95298.08
2022-08-25T04:28:05.012Z,95299.95
2022-08-25T04:29:04.791Z,95295.16
2022-08-25T04:30:04.791Z,95293.32
2022-08-25T04:31:04.772Z,95296.32
2022-08-25T04:32:04.821Z,95294.67
2022-08-25T04:33:04.752Z,95293.41
2022-08-25T04:34:04.863Z,95292.61
2022-08-25T04:35:04.744Z,95292.47
2022-08-25T04:36:08.766Z,95294.66
2022-08-25T04:37:04.737Z,95291.70
2022-08-25T04:38:04.894Z,95289.81
2022-08-25T04:39:04.718Z,95289.88
2022-08-25T04:40:04.765Z,95288.77
2022-08-25T04:41:04.728Z,95284.83
2022-08-25T04:42:04.735Z,95286.12
2022-08-25T04:43:04.679Z,95292.31
2022-08-25T04:44:04.679Z,95289.45
2022-08-25T04:45:04.655Z,95289.90
2022-08-25T04:46:04.756Z,95289.70
2022-08-25T04:47:04.650Z,95288.88
2022-08-25T04:48:04.661Z,95290.34
2022-08-25T04:49:04.617Z,95291.07
2022-08-25T04:50:04.622Z,95294.69
2022-08-25T04:51:04.599Z,95294.35
2022-08-25T04:52:04.622Z,95299.89
2022-08-25T04:53:04.580Z,95291.78
2022-08-25T04:54:04.593Z,95296.83
2022-08-25T04:55:04.568Z,95298.23
2022-08-25T04:56:04.573Z,95291.64
2022-08-25T04:57:04.555Z,95296.66
2022-08-25T04:58:04.823Z,95294.73
2022-08-25T04:59:04.532Z,95290.47
2022-08-25T05:00:04.523Z,95293.80
2022-08-25T05:01:04.567Z,95295.67
2022-08-25T05:02:04.516Z,95291.36
2022-08-25T05:03:04.494Z,95297.58
2022-08-25T05:04:04.545Z,95294.23
2022-08-25T05:05:04.487Z,95292.33
2022-08-25T05:06:04.478Z,95297.12
2022-08-25T05:07:04.455Z,95289.73
2022-08-25T05:08:04.646Z,95295.89
2022-08-25T05:09:04.436Z,95289.22
2022-08-25T05:10:04.436Z,95293.38
2022-08-25T05:11:04.417Z,95294.40
2022-08-25T05:12:04.428Z,95291.88
2022-08-25T05:13:04.411Z,95289.55
2022-08-25T05:14:04.411Z,95297.19
2022-08-25T05:15:04.386Z,95291.66
2022-08-25T05:16:04.446Z,95294.56
2022-08-25T05:17:04.368Z,95291.36
2022-08-25T05:18:04.442Z,95292.55
2022-08-25T05:19:04.361Z,95295.89
2022-08-25T05:20:04.341Z,95296.80
2022-08-25T05:21:04.340Z,95291.25
2022-08-25T05:22:04.350Z,95290.23
2022-08-25T05:23:04.314Z,95295.02
2022-08-25T05:24:04.315Z,95288.80
2022-08-25T05:25:04.304Z,95298.28
2022-08-25T05:26:04.297Z,95294.50
2022-08-25T05:27:04.289Z,95293.64
2022-08-25T05:28:04.392Z,95291.31
2022-08-25T05:29:04.253Z,95292.86
2022-08-25T05:30:04.253Z,95294.89
2022-08-25T05:31:04.267Z,95293.32
2022-08-25T05:32:04.300Z,95291.02
2022-08-25T05:33:04.228Z,95293.56
2022-08-25T05:34:04.225Z,95296.12
2022-08-25T05:35:04.219Z,95294.97
2022-08-25T05:36:04.196Z,95290.80
2022-08-25T05:37:04.190Z,95294.92
2022-08-25T05:38:04.426Z,95293.88
2022-08-25T05:39:04.184Z,95293.71
2022-08-25T05:40:04.223Z,95295.95
2022-08-25T05:41:04.147Z,95293.83
2022-08-25T05:42:04.138Z,95295.29
2022-08-25T05:43:04.129Z,95294.47
2022-08-25T05:44:04.133Z,95296.61
2022-08-25T05:45:04.110Z,95295.62
2022-08-25T05:46:04.161Z,95302.73
2022-08-25T05:47:04.091Z,95301.73
2022-08-25T05:48:04.244Z,95299.04
2022-08-25T05:49:04.072Z,95300.42
2022-08-25T05:50:04.071Z,95294.89
2022-08-25T05:51:04.051Z,95290.98
2022-08-25T05:52:04.061Z,95287.03
2022-08-25T05:53:04.046Z,95290.70
2022-08-25T05:54:04.033Z,95292.19
2022-08-25T05:55:04.027Z,95296.27
2022-08-25T05:56:04.013Z,95293.20
2022-08-25T05:57:04.002Z,95294.08
2022-08-25T05:58:04.036Z,95299.88
2022-08-25T05:59:08.687Z,95301.53
2022-08-25T06:00:03.994Z,95296.38
2022-08-25T06:01:04.037Z,95292.45
2022-08-25T06:02:03.956Z,95292.09
2022-08-25T06:03:03.957Z,95291.02
2022-08-25T06:04:03.992Z,95292.06
2022-08-25T06:05:03.940Z,95292.64
2022-08-25T06:06:03.917Z,95290.27
2022-08-25T06:07:03.920Z,95294.95
2022-08-25T06:08:03.999Z,95291.75
2022-08-25T06:09:03.888Z,95292.50
2022-08-25T06:10:03.912Z,95292.52
2022-08-25T06:11:03.869Z,95293.45
2022-08-25T06:12:03.869Z,95291.67
2022-08-25T06:13:03.849Z,95295.70
2022-08-25T06:14:03.850Z,95288.54
2022-08-25T06:15:03.844Z,95291.33
2022-08-25T06:16:03.919Z,95287.11
2022-08-25T06:17:03.834Z,95290.48
2022-08-25T06:18:03.880Z,95291.09
2022-08-25T06:19:03.800Z,95292.61
2022-08-25T06:20:03.792Z,95291.00
2022-08-25T06:21:03.782Z,95290.05
2022-08-25T06:22:03.796Z,95285.01
2022-08-25T06:23:03.777Z,95288.38
2022-08-25T06:24:03.753Z,95284.98
2022-08-25T06:25:03.759Z,95286.88
2022-08-25T06:26:03.744Z,95286.19
2022-08-25T06:27:03.738Z,95287.88
2022-08-25T06:28:03.807Z,95287.33
2022-08-25T06:29:03.720Z,95287.77
2022-08-25T06:30:07.612Z,95284.61
2022-08-25T06:31:03.801Z,95282.42
2022-08-25T06:32:03.700Z,95283.17
2022-08-25T06:33:03.691Z,95278.95
2022-08-25T06:34:03.700Z,95281.11
2022-08-25T06:35:03.658Z,95280.01
2022-08-25T06:36:03.658Z,95283.99
2022-08-25T06:37:03.664Z,95277.33
2022-08-25T06:38:03.713Z,95275.98
2022-08-25T06:39:03.629Z,95283.34
2022-08-25T06:40:03.716Z,95278.77
2022-08-25T06:41:03.611Z,95279.18
2022-08-25T06:42:03.623Z,95279.11
2022-08-25T06:43:03.605Z,95278.31
2022-08-25T06:44:05.328Z,95275.05
2022-08-25T06:45:03.585Z,95276.56
2022-08-25T06:46:03.606Z,95273.81
2022-08-25T06:47:03.618Z,95279.51
2022-08-25T06:48:03.552Z,95273.02
2022-08-25T06:49:03.557Z,95274.39
2022-08-25T06:50:03.534Z,95271.74
2022-08-25T06:51:03.538Z,95266.14
2022-08-25T06:52:03.557Z,95261.47
2022-08-25T06:53:03.539Z,95262.08
2022-08-25T06:54:03.518Z,95269.83
2022-08-25T06:55:03.495Z,95266.77
2022-08-25T06:56:06.637Z,95267.72
2022-08-25T06:57:03.480Z,95265.41
2022-08-25T06:58:03.497Z,95258.35
2022-08-25T06:59:03.471Z,95262.70
2022-08-25T07:00:03.448Z,95252.52
2022-08-25T07:01:03.483Z,95253.53
2022-08-25T07:02:03.707Z,95253.09
2022-08-25T07:03:03.427Z,95253.84
2022-08-25T07:04:03.748Z,95252.48
2022-08-25T07:05:03.448Z,95255.12
2022-08-25T07:06:03.416Z,95250.42
2022-08-25T07:07:03.404Z,95256.43
2022-08-25T07:08:03.483Z,95253.86
2022-08-25T07:09:03.372Z,95259.59
2022-08-25T07:10:03.371Z,95257.22
2022-08-25T07:11:03.352Z,95252.52
2022-08-25T07:12:03.344Z,95253.69
2022-08-25T07:13:03.347Z,95251.98
2022-08-25T07:14:03.335Z,95251.00
2022-08-25T07:15:19.280Z,95250.32
2022-08-25T07:16:03.492Z,95251.48
2022-08-25T07:17:03.303Z,95249.53
2022-08-25T07:18:03.357Z,95246.05
2022-08-25T07:19:03.288Z,95245.61
2022-08-25T07:20:03.320Z,95246.29
2022-08-25T07:21:03.281Z,95245.30
2022-08-25T07:22:03.299Z,95249.23
2022-08-25T07:23:03.286Z,95250.65
2022-08-25T07:24:03.248Z,95250.56
2022-08-25T07:25:03.249Z,95250.35
2022-08-25T07:26:11.758Z,95250.94
2022-08-25T07:27:03.232Z,95248.78
2022-08-25T07:28:03.229Z,95252.63
2022-08-25T07:29:03.199Z,95248.28
2022-08-25T07:30:04.352Z,95251.64
2022-08-25T07:31:03.225Z,95250.59
2022-08-25T07:32:03.181Z,95246.07
2022-08-25T07:33:06.820Z,95250.42
2022-08-25T07:34:03.185Z,95252.40
2022-08-25T07:35:03.157Z,95248.78
2022-08-25T07:36:03.156Z,95243.44
2022-08-25T07:37:03.133Z,95245.23
2022-08-25T07:38:03.136Z,95248.50
2022-08-25T07:39:03.128Z,95245.17
2022-08-25T07:40:03.211Z,95243.50
2022-08-25T07:41:03.095Z,95244.55
2022-08-25T07:42:03.095Z,95239.10
2022-08-25T07:43:03.138Z,95236.59
2022-08-25T07:44:03.076Z,95234.50
2022-08-25T07:45:03.070Z,95232.81
2022-08-25T07:46:03.077Z,95233.70
2022-08-25T07:47:03.048Z,95222.01
2022-08-25T07:48:03.051Z,95218.36
2022-08-25T07:49:03.042Z,95214.56
2022-08-25T07:50:03.029Z,95218.58
2022-08-25T07:51:05.539Z,95221.92
2022-08-25T07:52:05.497Z,95230.28
2022-08-25T07:53:03.011Z,95220.85
2022-08-25T07:54:02.992Z,95221.51
2022-08-25T07:55:03.009Z,95227.77
2022-08-25T07:57:02.979Z,95229.78
2022-08-25T07:58:03.001Z,95232.02
2022-08-25T07:59:02.958Z,95232.07
2022-08-25T08:00:02.942Z,95234.03
2022-08-25T08:01:02.932Z,95233.36
2022-08-25T08:02:03.033Z,95236.02
2022-08-25T08:03:03.757Z,95236.42
2022-08-25T08:04:03.669Z,95235.27
2022-08-25T08:05:02.909Z,95235.18
2022-08-25T08:06:02.907Z,95231.95
2022-08-25T08:07:02.875Z,95230.59
2022-08-25T08:08:02.939Z,95232.02
2022-08-25T08:09:02.857Z,95231.97
2022-08-25T08:10:32.885Z,95234.18
2022-08-25T08:11:04.709Z,95237.16
2022-08-25T08:12:02.838Z,95239.06
2022-08-25T08:13:02.876Z,95241.86
2022-08-25T08:14:02.827Z,95242.90
2022-08-25T08:15:02.841Z,95238.72
2022-08-25T08:16:02.862Z,95241.67
2022-08-25T08:17:02.790Z,95237.12
2022-08-25T08:18:03.171Z,95238.11
2022-08-25T08:19:02.771Z,95236.50
2022-08-25T08:20:02.787Z,95238.45
2022-08-25T08:21:02.775Z,95234.25
2022-08-25T08:22:02.787Z,95243.55
2022-08-25T08:23:02.812Z,95241.38
2022-08-25T08:24:05.040Z,95246.88
2022-08-25T08:25:02.726Z,95234.20
2022-08-25T08:26:02.723Z,95238.62
2022-08-25T08:27:02.719Z,95232.71
2022-08-25T08:28:02.755Z,95233.52
2022-08-25T08:29:02.685Z,95237.25
2022-08-25T08:30:02.686Z,95238.36
2022-08-25T08:31:02.716Z,95235.70
2022-08-25T08:32:02.666Z,95245.34
2022-08-25T08:33:11.497Z,95242.22
2022-08-25T08:34:02.667Z,95247.52
2022-08-25T08:35:02.651Z,95246.84
2022-08-25T08:36:04.843Z,95248.47
2022-08-25T08:37:02.632Z,95245.28
2022-08-25T08:38:02.622Z,95248.42
2022-08-25T08:39:02.613Z,95246.97
2022-08-25T08:40:03.370Z,95243.61
2022-08-25T08:41:02.605Z,95239.33
2022-08-25T08:42:11.469Z,95234.84
2022-08-25T08:43:02.659Z,95241.97
2022-08-25T08:44:02.631Z,95237.88
2022-08-25T08:45:02.785Z,95239.53
2022-08-25T08:46:02.598Z,95238.23
2022-08-25T08:47:02.549Z,95238.05
2022-08-25T08:48:02.574Z,95241.36
2022-08-25T08:49:02.526Z,95240.44
2022-08-25T08:50:03.974Z,95240.97
2022-08-25T08:51:02.519Z,95239.38
2022-08-25T08:52:02.752Z,95237.31
2022-08-25T08:53:02.499Z,95239.77
2022-08-25T08:54:02.495Z,95241.44
2022-08-25T08:55:02.489Z,95242.81
2022-08-25T08:56:02.474Z,95233.48
2022-08-25T08:57:02.471Z,95236.62
2022-08-25T08:58:02.499Z,95230.98
2022-08-25T08:59:06.118Z,95233.42
2022-08-25T09:00:02.429Z,95234.80
2022-08-25T09:01:02.433Z,95238.39
2022-08-25T09:02:02.439Z,95241.78
2022-08-25T09:03:02.453Z,95238.34
2022-08-25T09:04:02.412Z,95241.20
2022-08-25T09:05:02.403Z,95237.58
2022-08-25T09:06:02.373Z,95242.27
2022-08-25T09:07:02.377Z,95239.44
2022-08-25T09:08:02.367Z,95243.95
2022-08-25T09:09:02.352Z,95239.72
2022-08-25T09:10:02.358Z,95234.86
2022-08-25T09:11:02.335Z,95235.20
2022-08-25T09:12:02.324Z,95232.78
2022-08-25T09:13:02.315Z,95238.34
2022-08-25T09:14:02.320Z,95238.77
2022-08-25T09:15:02.305Z,95235.06
2022-08-25T09:16:02.364Z,95234.23
2022-08-25T09:17:02.303Z,95238.05
2022-08-25T09:18:02.281Z,95235.64
2022-08-25T09:19:02.280Z,95235.66
2022-08-25T09:20:02.261Z,95237.41
2022-08-25T09:21:02.248Z,95236.55
2022-08-25T09:22:02.250Z,95240.60
2022-08-25T09:23:02.253Z,95236.01
2022-08-25T09:24:02.233Z,95238.62
2022-08-25T09:25:04.366Z,95244.14
2022-08-25T09:26:02.209Z,95240.08
2022-08-25T09:27:02.201Z,95243.22
2022-08-25T09:28:02.281Z,95242.45
2022-08-25T09:29:02.196Z,95243.84
2022-08-25T09:30:05.224Z,95242.62
2022-08-25T09:31:02.226Z,95250.41
2022-08-25T09:32:02.167Z,95247.67
2022-08-25T09:33:02.161Z,95246.10
2022-08-25T09:34:02.274Z,95251.98
2022-08-25T09:35:02.147Z,95247.75
2022-08-25T09:36:05.946Z,95244.38
2022-08-25T09:37:02.117Z,95250.47
2022-08-25T09:38:02.102Z,95251.84
2022-08-25T09:39:02.112Z,95252.64
2022-08-25T09:40:02.124Z,95252.97
2022-08-25T09:41:02.092Z,95251.09
2022-08-25T09:42:02.082Z,95253.42
2022-08-25T09:43:02.099Z,95252.12
2022-08-25T09:44:02.064Z,95247.80
2022-08-25T09:45:02.063Z,95248.22
2022-08-25T09:46:02.134Z,95250.58
2022-08-25T09:47:02.206Z,95255.80
2022-08-25T09:48:02.011Z,95256.12
2022-08-25T09:49:02.011Z,95252.50
2022-08-25T09:50:04.468Z,95253.70
2022-08-25T09:51:01.998Z,95250.50
2022-08-25T09:52:01.993Z,95250.49
2022-08-25T09:53:01.982Z,95246.07
2022-08-25T09:54:01.964Z,95247.03
2022-08-25T09:55:01.977Z,95248.08
2022-08-25T09:56:01.945Z,95244.44
2022-08-25T09:57:01.965Z,95242.72
2022-08-25T09:58:01.947Z,95241.56
2022-08-25T09:59:03.223Z,95240.28
2022-08-25T10:00:01.927Z,95234.88
2022-08-25T10:01:01.907Z,95237.24
2022-08-25T10:02:01.932Z,95237.87
2022-08-25T10:03:06.086Z,95239.70
2022-08-25T10:04:01.943Z,95233.73
2022-08-25T10:05:01.949Z,95243.42
2022-08-25T10:06:01.861Z,95236.51
2022-08-25T10:07:01.873Z,95231.62
2022-08-25T10:08:01.849Z,95231.64
2022-08-25T10:09:01.864Z,95232.52
2022-08-25T10:10:01.853Z,95225.81
2022-08-25T10:11:01.835Z,95226.08
2022-08-25T10:12:01.977Z,95226.02
2022-08-25T10:13:01.919Z,95224.70
2022-08-25T10:14:01.812Z,95222.53
2022-08-25T10:15:01.793Z,95224.88
2022-08-25T10:16:01.849Z,95226.80
2022-08-25T10:17:01.791Z,95218.89
2022-08-25T10:18:01.775Z,95221.25
2022-08-25T10:19:01.755Z,95219.77
2022-08-25T10:20:01.758Z,95218.64
2022-08-25T10:21:01.761Z,95215.33
2022-08-25T10:22:01.836Z,95216.03
2022-08-25T10:23:01.821Z,95213.79
2022-08-25T10:24:01.735Z,95208.38
2022-08-25T10:25:01.721Z,95206.22
2022-08-25T10:26:03.617Z,95207.95
2022-08-25T10:27:01.692Z,95211.34
2022-08-25T10:28:01.692Z,95208.31
2022-08-25T10:29:01.684Z,95209.70
2022-08-25T10:30:03.006Z,95204.73
2022-08-25T10:31:01.713Z,95206.12
2022-08-25T10:32:01.640Z,95200.14
2022-08-25T10:33:01.776Z,95202.31
2022-08-25T10:34:01.643Z,95201.95
2022-08-25T10:35:01.622Z,95197.34
2022-08-25T10:36:01.612Z,95196.91
2022-08-25T10:37:01.617Z,95200.12
2022-08-25T10:38:01.609Z,95201.97
2022-08-25T10:39:01.897Z,95204.89
2022-08-25T10:40:01.693Z,95196.39
2022-08-25T10:41:01.575Z,95202.47
2022-08-25T10:42:01.556Z,95194.22
2022-08-25T10:43:01.641Z,95195.61
2022-08-25T10:44:01.560Z,95193.80
2022-08-25T10:45:01.553Z,95193.19
2022-08-25T10:46:01.612Z,95195.97
2022-08-25T10:47:01.518Z,95192.42
2022-08-25T10:48:01.522Z,95190.33
2022-08-25T10:49:01.522Z,95186.51
2022-08-25T10:50:01.493Z,95187.40
2022-08-25T10:51:01.490Z,95181.50
2022-08-25T10:52:01.504Z,95182.34
2022-08-25T10:53:01.510Z,95183.21
2022-08-25T10:54:02.232Z,95178.01
2022-08-25T10:55:01.465Z,95184.16
2022-08-25T10:56:01.442Z,95178.34
2022-08-25T10:57:01.988Z,95179.55
2022-08-25T10:58:01.441Z,95181.73
2022-08-25T10:59:01.445Z,95177.55
2022-08-25T11:00:01.404Z,95176.25
2022-08-25T11:01:01.464Z,95172.43
2022-08-25T11:02:01.478Z,95173.48
2022-08-25T11:03:01.466Z,95171.55
2022-08-25T11:04:01.399Z,95172.59
2022-08-25T11:05:01.439Z,95171.47
2022-08-25T11:06:01.371Z,95167.05
2022-08-25T11:07:01.347Z,95166.86
2022-08-25T11:08:01.338Z,95169.20
2022-08-25T11:09:01.352Z,95166.87
2022-08-25T11:10:01.343Z,95170.78
2022-08-25T11:11:01.321Z,95165.28
2022-08-25T11:12:01.314Z,95166.85
2022-08-25T11:13:01.300Z,95166.15
2022-08-25T11:14:04.603Z,95166.61
2022-08-25T11:15:01.311Z,95161.66
2022-08-25T11:16:18.667Z,95165.05
2022-08-25T11:17:01.294Z,95160.94
2022-08-25T11:18:01.267Z,95161.12
2022-08-25T11:19:01.266Z,95152.44
2022-08-25T11:20:01.242Z,95151.59
2022-08-25T11:21:01.233Z,95164.53
2022-08-25T11:22:01.238Z,95152.02
2022-08-25T11:23:01.225Z,95149.86
2022-08-25T11:24:01.205Z,95149.78
2022-08-25T11:25:01.205Z,95149.75
2022-08-25T11:26:01.200Z,95147.41
2022-08-25T11:27:01.188Z,95144.70
2022-08-25T11:28:01.310Z,95151.56
2022-08-25T11:29:01.181Z,95150.17
2022-08-25T11:30:01.173Z,95155.12
2022-08-25T11:31:01.180Z,95147.04
2022-08-25T11:32:01.237Z,95149.30
2022-08-25T11:33:01.139Z,95145.31
2022-08-25T11:34:01.140Z,95144.80
2022-08-25T11:35:01.122Z,95152.01
2022-08-25T11:36:01.114Z,95144.88
2022-08-25T11:37:01.173Z,95141.06
2022-08-25T11:38:01.091Z,95143.35
2022-08-25T11:39:01.105Z,95136.14
2022-08-25T11:40:01.138Z,95137.27
2022-08-25T11:41:01.092Z,95139.09
2022-08-25T11:42:01.063Z,95133.80
2022-08-25T11:43:01.053Z,95135.25
2022-08-25T11:44:01.064Z,95134.98
2022-08-25T11:45:01.036Z,95138.72